Clarinda, Schenck Field (KICL)

NameSchenck Field
CityClarinda
CountryUnited States
ICAOKICL
IATAICL
Altitude304 m
CoordinatesGoogle Map
Live Air TrafficLiveATC.net
METARKICL 192355Z AUTO 00000KT 9SM FEW055 BKN070 BKN095 21/19 A2973 RMK AO2
2019-06-19 23:55:00 Wind: North (0°) 0 m/s - Visibility: 14484.06 m - Temperature: 21 °C - Dew point: 19 °C - Humidity: 88.4% - Pressure: 1006.77 hPa
Statistics

The table below shows the detailed information of all flights to/from Clarinda, Schenck Field (KICL).